sensor_id;sensor_type;location;lat;lon;timestamp;P1;durP1;ratioP1;P2;durP2;ratioP2
53245;SDS011;39569;51.090;-1.786;2023-08-20T00:01:07;17.40;;;4.03;;
53245;SDS011;39569;51.090;-1.786;2023-08-20T00:03:38;8.45;;;2.50;;
53245;SDS011;39569;51.090;-1.786;2023-08-20T00:06:06;6.07;;;3.00;;
53245;SDS011;39569;51.090;-1.786;2023-08-20T00:08:34;15.20;;;2.78;;
53245;SDS011;39569;51.090;-1.786;2023-08-20T00:11:02;8.68;;;3.60;;
53245;SDS011;39569;51.090;-1.786;2023-08-20T00:13:29;11.63;;;3.28;;
53245;SDS011;39569;51.090;-1.786;2023-08-20T00:15:56;9.02;;;3.08;;
53245;SDS011;39569;51.090;-1.786;2023-08-20T00:18:24;4.82;;;2.05;;
53245;SDS011;39569;51.090;-1.786;2023-08-20T00:20:51;8.95;;;3.40;;
53245;SDS011;39569;51.090;-1.786;2023-08-20T00:23:19;14.18;;;3.08;;
53245;SDS011;39569;51.090;-1.786;2023-08-20T00:25:47;3.95;;;2.20;;
53245;SDS011;39569;51.090;-1.786;2023-08-20T00:28:15;10.82;;;3.53;;
53245;SDS011;39569;51.090;-1.786;2023-08-20T00:30:42;13.73;;;2.78;;
53245;SDS011;39569;51.090;-1.786;2023-08-20T00:33:09;13.57;;;4.18;;
53245;SDS011;39569;51.090;-1.786;2023-08-20T00:35:35;7.53;;;2.60;;
53245;SDS011;39569;51.090;-1.786;2023-08-20T00:38:02;7.07;;;3.03;;
53245;SDS011;39569;51.090;-1.786;2023-08-20T00:40:30;10.10;;;4.30;;
53245;SDS011;39569;51.090;-1.786;2023-08-20T00:42:57;8.43;;;3.75;;
53245;SDS011;39569;51.090;-1.786;2023-08-20T00:45:25;7.60;;;3.45;;
53245;SDS011;39569;51.090;-1.786;2023-08-20T00:47:53;8.63;;;3.78;;
53245;SDS011;39569;51.090;-1.786;2023-08-20T00:50:20;4.65;;;2.97;;
53245;SDS011;39569;51.090;-1.786;2023-08-20T00:52:47;12.35;;;3.65;;
53245;SDS011;39569;51.090;-1.786;2023-08-20T00:55:14;18.80;;;4.60;;
53245;SDS011;39569;51.090;-1.786;2023-08-20T00:57:41;12.13;;;5.25;;
53245;SDS011;39569;51.090;-1.786;2023-08-20T01:00:09;9.77;;;3.50;;
53245;SDS011;39569;51.090;-1.786;2023-08-20T01:02:38;7.05;;;3.83;;
53245;SDS011;39569;51.090;-1.786;2023-08-20T01:05:06;10.05;;;4.60;;
53245;SDS011;39569;51.090;-1.786;2023-08-20T01:07:38;5.15;;;3.47;;
53245;SDS011;39569;51.090;-1.786;2023-08-20T01:10:13;4.78;;;3.78;;
53245;SDS011;39569;51.090;-1.786;2023-08-20T01:12:45;5.60;;;3.42;;
53245;SDS011;39569;51.090;-1.786;2023-08-20T01:15:12;8.00;;;3.47;;
53245;SDS011;39569;51.090;-1.786;2023-08-20T01:17:41;11.25;;;4.35;;
53245;SDS011;39569;51.090;-1.786;2023-08-20T01:20:09;3.90;;;3.35;;
53245;SDS011;39569;51.090;-1.786;2023-08-20T01:25:50;9.30;;;4.32;;
53245;SDS011;39569;51.090;-1.786;2023-08-20T01:28:35;11.70;;;4.07;;
53245;SDS011;39569;51.090;-1.786;2023-08-20T01:31:04;8.43;;;3.90;;
53245;SDS011;39569;51.090;-1.786;2023-08-20T01:33:32;14.30;;;4.50;;
53245;SDS011;39569;51.090;-1.786;2023-08-20T01:35:59;8.75;;;5.28;;
53245;SDS011;39569;51.090;-1.786;2023-08-20T01:38:26;7.22;;;4.55;;
53245;SDS011;39569;51.090;-1.786;2023-08-20T01:40:53;11.43;;;4.90;;
53245;SDS011;39569;51.090;-1.786;2023-08-20T01:43:21;7.75;;;4.97;;
53245;SDS011;39569;51.090;-1.786;2023-08-20T01:45:49;13.00;;;5.45;;
53245;SDS011;39569;51.090;-1.786;2023-08-20T01:48:16;10.68;;;4.25;;
53245;SDS011;39569;51.090;-1.786;2023-08-20T01:50:43;6.70;;;3.47;;
53245;SDS011;39569;51.090;-1.786;2023-08-20T01:53:10;12.23;;;5.45;;
53245;SDS011;39569;51.090;-1.786;2023-08-20T01:55:37;5.00;;;3.45;;
53245;SDS011;39569;51.090;-1.786;2023-08-20T01:58:04;10.02;;;3.72;;
53245;SDS011;39569;51.090;-1.786;2023-08-20T02:00:31;8.93;;;4.57;;
53245;SDS011;39569;51.090;-1.786;2023-08-20T02:03:00;10.23;;;4.43;;
53245;SDS011;39569;51.090;-1.786;2023-08-20T02:05:27;15.30;;;4.75;;
53245;SDS011;39569;51.090;-1.786;2023-08-20T02:07:54;6.63;;;3.30;;
53245;SDS011;39569;51.090;-1.786;2023-08-20T02:10:20;5.75;;;4.18;;
53245;SDS011;39569;51.090;-1.786;2023-08-20T02:12:47;11.73;;;3.40;;
53245;SDS011;39569;51.090;-1.786;2023-08-20T02:15:14;7.95;;;4.35;;
53245;SDS011;39569;51.090;-1.786;2023-08-20T02:17:41;8.25;;;4.50;;
53245;SDS011;39569;51.090;-1.786;2023-08-20T02:20:09;6.03;;;4.07;;
53245;SDS011;39569;51.090;-1.786;2023-08-20T02:22:37;7.38;;;4.35;;
53245;SDS011;39569;51.090;-1.786;2023-08-20T02:25:04;12.48;;;3.65;;
53245;SDS011;39569;51.090;-1.786;2023-08-20T02:27:31;13.55;;;4.55;;
53245;SDS011;39569;51.090;-1.786;2023-08-20T02:29:57;13.10;;;4.40;;
53245;SDS011;39569;51.090;-1.786;2023-08-20T02:32:25;9.82;;;4.00;;
53245;SDS011;39569;51.090;-1.786;2023-08-20T02:34:51;10.18;;;5.03;;
53245;SDS011;39569;51.090;-1.786;2023-08-20T02:37:21;6.45;;;4.03;;
53245;SDS011;39569;51.090;-1.786;2023-08-20T02:39:47;8.73;;;4.35;;
53245;SDS011;39569;51.090;-1.786;2023-08-20T02:42:14;8.45;;;3.83;;
53245;SDS011;39569;51.090;-1.786;2023-08-20T02:44:41;7.50;;;4.10;;
53245;SDS011;39569;51.090;-1.786;2023-08-20T02:47:08;12.23;;;4.80;;
53245;SDS011;39569;51.090;-1.786;2023-08-20T02:49:35;5.43;;;3.92;;
53245;SDS011;39569;51.090;-1.786;2023-08-20T02:52:02;4.20;;;3.83;;
53245;SDS011;39569;51.090;-1.786;2023-08-20T02:54:30;10.18;;;4.65;;
53245;SDS011;39569;51.090;-1.786;2023-08-20T02:56:58;7.13;;;3.58;;
53245;SDS011;39569;51.090;-1.786;2023-08-20T02:59:25;22.45;;;3.63;;
53245;SDS011;39569;51.090;-1.786;2023-08-20T03:01:52;8.98;;;3.50;;
53245;SDS011;39569;51.090;-1.786;2023-08-20T03:04:18;6.55;;;4.72;;
53245;SDS011;39569;51.090;-1.786;2023-08-20T03:06:45;11.05;;;4.07;;
53245;SDS011;39569;51.090;-1.786;2023-08-20T03:09:12;12.73;;;4.22;;
53245;SDS011;39569;51.090;-1.786;2023-08-20T03:11:40;8.55;;;3.08;;
53245;SDS011;39569;51.090;-1.786;2023-08-20T03:14:08;7.85;;;3.38;;
53245;SDS011;39569;51.090;-1.786;2023-08-20T03:16:34;4.72;;;3.15;;
53245;SDS011;39569;51.090;-1.786;2023-08-20T03:19:01;2.92;;;2.67;;
53245;SDS011;39569;51.090;-1.786;2023-08-20T03:21:28;9.88;;;3.17;;
53245;SDS011;39569;51.090;-1.786;2023-08-20T03:23:55;6.13;;;3.35;;
53245;SDS011;39569;51.090;-1.786;2023-08-20T03:26:21;8.35;;;4.32;;
53245;SDS011;39569;51.090;-1.786;2023-08-20T03:28:50;10.05;;;3.88;;
53245;SDS011;39569;51.090;-1.786;2023-08-20T03:31:16;8.15;;;4.20;;
53245;SDS011;39569;51.090;-1.786;2023-08-20T03:33:43;6.80;;;3.50;;
53245;SDS011;39569;51.090;-1.786;2023-08-20T03:36:10;12.73;;;4.35;;
53245;SDS011;39569;51.090;-1.786;2023-08-20T03:38:37;4.20;;;3.38;;
53245;SDS011;39569;51.090;-1.786;2023-08-20T03:41:04;6.47;;;3.70;;
53245;SDS011;39569;51.090;-1.786;2023-08-20T03:43:31;8.90;;;4.88;;
53245;SDS011;39569;51.090;-1.786;2023-08-20T03:45:59;9.75;;;5.07;;
53245;SDS011;39569;51.090;-1.786;2023-08-20T03:48:26;8.60;;;5.03;;
53245;SDS011;39569;51.090;-1.786;2023-08-20T03:50:52;9.55;;;3.92;;
53245;SDS011;39569;51.090;-1.786;2023-08-20T03:53:20;7.88;;;4.70;;
53245;SDS011;39569;51.090;-1.786;2023-08-20T03:55:49;15.40;;;4.78;;
53245;SDS011;39569;51.090;-1.786;2023-08-20T03:58:16;5.75;;;3.70;;
53245;SDS011;39569;51.090;-1.786;2023-08-20T04:00:43;7.22;;;3.75;;
53245;SDS011;39569;51.090;-1.786;2023-08-20T04:03:11;15.15;;;4.40;;
53245;SDS011;39569;51.090;-1.786;2023-08-20T04:05:39;16.13;;;5.30;;
53245;SDS011;39569;51.090;-1.786;2023-08-20T04:08:06;12.50;;;4.78;;
53245;SDS011;39569;51.090;-1.786;2023-08-20T04:10:33;10.52;;;3.97;;
53245;SDS011;39569;51.090;-1.786;2023-08-20T04:13:00;6.70;;;3.92;;
53245;SDS011;39569;51.090;-1.786;2023-08-20T04:15:26;3.83;;;3.38;;
53245;SDS011;39569;51.090;-1.786;2023-08-20T04:17:53;8.18;;;3.70;;
53245;SDS011;39569;51.090;-1.786;2023-08-20T04:20:21;14.25;;;4.63;;
53245;SDS011;39569;51.090;-1.786;2023-08-20T04:22:49;8.95;;;3.33;;
53245;SDS011;39569;51.090;-1.786;2023-08-20T04:25:15;5.28;;;3.95;;
53245;SDS011;39569;51.090;-1.786;2023-08-20T04:27:42;10.55;;;4.15;;
53245;SDS011;39569;51.090;-1.786;2023-08-20T04:30:09;6.57;;;4.03;;
53245;SDS011;39569;51.090;-1.786;2023-08-20T04:32:37;8.27;;;3.60;;
53245;SDS011;39569;51.090;-1.786;2023-08-20T04:35:04;8.45;;;3.72;;
53245;SDS011;39569;51.090;-1.786;2023-08-20T04:37:33;9.85;;;4.18;;
53245;SDS011;39569;51.090;-1.786;2023-08-20T04:39:59;6.20;;;4.03;;
53245;SDS011;39569;51.090;-1.786;2023-08-20T04:42:26;15.13;;;4.35;;
53245;SDS011;39569;51.090;-1.786;2023-08-20T04:44:53;5.80;;;3.47;;
53245;SDS011;39569;51.090;-1.786;2023-08-20T04:47:20;11.52;;;3.20;;
53245;SDS011;39569;51.090;-1.786;2023-08-20T04:49:47;7.82;;;3.17;;
53245;SDS011;39569;51.090;-1.786;2023-08-20T04:52:13;7.47;;;4.20;;
53245;SDS011;39569;51.090;-1.786;2023-08-20T04:54:41;4.43;;;3.13;;
53245;SDS011;39569;51.090;-1.786;2023-08-20T04:57:08;9.77;;;4.30;;
53245;SDS011;39569;51.090;-1.786;2023-08-20T04:59:35;8.48;;;4.15;;
53245;SDS011;39569;51.090;-1.786;2023-08-20T05:02:02;15.48;;;4.13;;
53245;SDS011;39569;51.090;-1.786;2023-08-20T05:04:29;4.57;;;4.13;;
53245;SDS011;39569;51.090;-1.786;2023-08-20T05:06:56;11.63;;;4.28;;
53245;SDS011;39569;51.090;-1.786;2023-08-20T05:09:22;9.20;;;4.32;;
53245;SDS011;39569;51.090;-1.786;2023-08-20T05:11:50;7.22;;;4.22;;
53245;SDS011;39569;51.090;-1.786;2023-08-20T05:14:17;3.70;;;3.40;;
53245;SDS011;39569;51.090;-1.786;2023-08-20T05:16:44;6.63;;;3.33;;
53245;SDS011;39569;51.090;-1.786;2023-08-20T05:19:11;9.75;;;3.97;;
53245;SDS011;39569;51.090;-1.786;2023-08-20T05:21:37;9.38;;;4.22;;
53245;SDS011;39569;51.090;-1.786;2023-08-20T05:24:04;6.65;;;3.67;;
53245;SDS011;39569;51.090;-1.786;2023-08-20T05:26:32;9.77;;;3.75;;
53245;SDS011;39569;51.090;-1.786;2023-08-20T05:29:00;7.20;;;3.58;;
53245;SDS011;39569;51.090;-1.786;2023-08-20T05:31:27;10.63;;;3.50;;
53245;SDS011;39569;51.090;-1.786;2023-08-20T05:33:53;6.78;;;3.42;;
53245;SDS011;39569;51.090;-1.786;2023-08-20T05:36:20;3.67;;;2.90;;
53245;SDS011;39569;51.090;-1.786;2023-08-20T05:38:47;5.60;;;3.28;;
53245;SDS011;39569;51.090;-1.786;2023-08-20T05:41:14;8.32;;;3.78;;
53245;SDS011;39569;51.090;-1.786;2023-08-20T05:43:41;4.38;;;3.75;;
53245;SDS011;39569;51.090;-1.786;2023-08-20T05:46:09;11.63;;;4.43;;
53245;SDS011;39569;51.090;-1.786;2023-08-20T05:48:36;6.25;;;4.43;;
53245;SDS011;39569;51.090;-1.786;2023-08-20T05:51:02;8.55;;;3.50;;
53245;SDS011;39569;51.090;-1.786;2023-08-20T05:53:29;5.32;;;3.40;;
53245;SDS011;39569;51.090;-1.786;2023-08-20T05:55:56;4.68;;;3.63;;
53245;SDS011;39569;51.090;-1.786;2023-08-20T05:58:23;6.82;;;3.47;;
53245;SDS011;39569;51.090;-1.786;2023-08-20T06:00:50;8.27;;;4.05;;
53245;SDS011;39569;51.090;-1.786;2023-08-20T06:03:18;11.95;;;4.00;;
53245;SDS011;39569;51.090;-1.786;2023-08-20T06:05:44;5.07;;;3.03;;
53245;SDS011;39569;51.090;-1.786;2023-08-20T06:08:11;8.57;;;3.67;;
53245;SDS011;39569;51.090;-1.786;2023-08-20T06:10:38;8.35;;;3.53;;
53245;SDS011;39569;51.090;-1.786;2023-08-20T06:13:05;5.85;;;2.85;;
53245;SDS011;39569;51.090;-1.786;2023-08-20T06:15:31;3.22;;;2.92;;
53245;SDS011;39569;51.090;-1.786;2023-08-20T06:17:58;11.13;;;3.13;;
53245;SDS011;39569;51.090;-1.786;2023-08-20T06:20:26;9.43;;;3.55;;
53245;SDS011;39569;51.090;-1.786;2023-08-20T06:22:53;8.45;;;4.03;;
53245;SDS011;39569;51.090;-1.786;2023-08-20T06:25:20;11.13;;;4.28;;
53245;SDS011;39569;51.090;-1.786;2023-08-20T06:27:47;13.15;;;3.63;;
53245;SDS011;39569;51.090;-1.786;2023-08-20T06:30:13;13.45;;;4.32;;
53245;SDS011;39569;51.090;-1.786;2023-08-20T06:32:40;5.10;;;3.22;;
53245;SDS011;39569;51.090;-1.786;2023-08-20T06:35:08;5.43;;;3.17;;
53245;SDS011;39569;51.090;-1.786;2023-08-20T06:37:38;10.60;;;3.72;;
53245;SDS011;39569;51.090;-1.786;2023-08-20T06:40:05;13.90;;;4.70;;
53245;SDS011;39569;51.090;-1.786;2023-08-20T06:42:33;4.78;;;2.97;;
53245;SDS011;39569;51.090;-1.786;2023-08-20T06:45:00;4.82;;;3.50;;
53245;SDS011;39569;51.090;-1.786;2023-08-20T06:47:27;11.00;;;2.95;;
53245;SDS011;39569;51.090;-1.786;2023-08-20T06:49:53;8.02;;;2.60;;
53245;SDS011;39569;51.090;-1.786;2023-08-20T06:52:20;4.50;;;2.72;;
53245;SDS011;39569;51.090;-1.786;2023-08-20T06:54:49;8.50;;;2.70;;
53245;SDS011;39569;51.090;-1.786;2023-08-20T06:57:15;21.35;;;3.22;;
53245;SDS011;39569;51.090;-1.786;2023-08-20T06:59:42;4.38;;;2.58;;
53245;SDS011;39569;51.090;-1.786;2023-08-20T07:02:09;7.07;;;2.67;;
53245;SDS011;39569;51.090;-1.786;2023-08-20T07:04:36;9.70;;;2.67;;
53245;SDS011;39569;51.090;-1.786;2023-08-20T07:07:03;5.28;;;3.33;;
53245;SDS011;39569;51.090;-1.786;2023-08-20T07:09:31;9.52;;;2.97;;
53245;SDS011;39569;51.090;-1.786;2023-08-20T07:11:59;6.70;;;2.65;;
53245;SDS011;39569;51.090;-1.786;2023-08-20T07:14:26;8.32;;;2.83;;
53245;SDS011;39569;51.090;-1.786;2023-08-20T07:16:53;6.13;;;3.28;;
53245;SDS011;39569;51.090;-1.786;2023-08-20T07:19:19;8.60;;;2.58;;
53245;SDS011;39569;51.090;-1.786;2023-08-20T07:21:46;4.80;;;2.60;;
53245;SDS011;39569;51.090;-1.786;2023-08-20T07:24:13;6.20;;;3.00;;
53245;SDS011;39569;51.090;-1.786;2023-08-20T07:26:40;2.90;;;2.22;;
53245;SDS011;39569;51.090;-1.786;2023-08-20T07:29:08;12.68;;;2.63;;
53245;SDS011;39569;51.090;-1.786;2023-08-20T07:31:35;4.28;;;2.53;;
53245;SDS011;39569;51.090;-1.786;2023-08-20T07:34:02;4.82;;;2.88;;
53245;SDS011;39569;51.090;-1.786;2023-08-20T07:36:30;12.90;;;3.53;;
53245;SDS011;39569;51.090;-1.786;2023-08-20T07:38:56;3.78;;;2.90;;
53245;SDS011;39569;51.090;-1.786;2023-08-20T07:41:23;13.88;;;3.10;;
53245;SDS011;39569;51.090;-1.786;2023-08-20T07:43:50;7.05;;;3.45;;
53245;SDS011;39569;51.090;-1.786;2023-08-20T07:46:19;5.18;;;2.70;;
53245;SDS011;39569;51.090;-1.786;2023-08-20T07:48:46;4.85;;;2.33;;
53245;SDS011;39569;51.090;-1.786;2023-08-20T07:51:12;13.77;;;3.25;;
53245;SDS011;39569;51.090;-1.786;2023-08-20T07:53:39;6.78;;;2.72;;
53245;SDS011;39569;51.090;-1.786;2023-08-20T07:56:06;12.70;;;3.25;;
53245;SDS011;39569;51.090;-1.786;2023-08-20T07:58:34;4.00;;;2.65;;
53245;SDS011;39569;51.090;-1.786;2023-08-20T08:01:00;4.18;;;2.72;;
53245;SDS011;39569;51.090;-1.786;2023-08-20T08:03:29;3.05;;;1.95;;
53245;SDS011;39569;51.090;-1.786;2023-08-20T08:05:56;5.18;;;1.70;;
53245;SDS011;39569;51.090;-1.786;2023-08-20T08:08:23;2.35;;;2.00;;
53245;SDS011;39569;51.090;-1.786;2023-08-20T08:10:49;4.13;;;2.15;;
53245;SDS011;39569;51.090;-1.786;2023-08-20T08:13:19;3.08;;;2.13;;
53245;SDS011;39569;51.090;-1.786;2023-08-20T08:15:47;3.75;;;2.08;;
53245;SDS011;39569;51.090;-1.786;2023-08-20T08:18:15;3.83;;;2.33;;
53245;SDS011;39569;51.090;-1.786;2023-08-20T08:20:44;5.50;;;2.42;;
53245;SDS011;39569;51.090;-1.786;2023-08-20T08:23:10;11.52;;;2.22;;
53245;SDS011;39569;51.090;-1.786;2023-08-20T08:25:37;4.85;;;2.13;;
53245;SDS011;39569;51.090;-1.786;2023-08-20T08:28:04;3.88;;;2.58;;
53245;SDS011;39569;51.090;-1.786;2023-08-20T08:30:32;6.75;;;2.45;;
53245;SDS011;39569;51.090;-1.786;2023-08-20T08:32:59;6.97;;;2.65;;
53245;SDS011;39569;51.090;-1.786;2023-08-20T08:35:25;4.95;;;2.55;;
53245;SDS011;39569;51.090;-1.786;2023-08-20T08:37:53;5.25;;;2.28;;
53245;SDS011;39569;51.090;-1.786;2023-08-20T08:40:21;5.80;;;3.03;;
53245;SDS011;39569;51.090;-1.786;2023-08-20T08:42:48;2.13;;;1.45;;
53245;SDS011;39569;51.090;-1.786;2023-08-20T08:45:16;6.82;;;2.83;;
53245;SDS011;39569;51.090;-1.786;2023-08-20T08:47:45;2.63;;;1.48;;
53245;SDS011;39569;51.090;-1.786;2023-08-20T08:50:12;4.50;;;2.05;;
53245;SDS011;39569;51.090;-1.786;2023-08-20T08:52:40;3.70;;;1.98;;
53245;SDS011;39569;51.090;-1.786;2023-08-20T08:55:09;3.83;;;1.80;;
53245;SDS011;39569;51.090;-1.786;2023-08-20T08:57:37;2.05;;;1.40;;
53245;SDS011;39569;51.090;-1.786;2023-08-20T09:00:05;5.43;;;2.47;;
53245;SDS011;39569;51.090;-1.786;2023-08-20T09:02:32;8.18;;;2.70;;
53245;SDS011;39569;51.090;-1.786;2023-08-20T09:04:59;3.00;;;1.42;;
53245;SDS011;39569;51.090;-1.786;2023-08-20T09:07:26;4.22;;;2.13;;
53245;SDS011;39569;51.090;-1.786;2023-08-20T09:09:57;3.53;;;1.52;;
53245;SDS011;39569;51.090;-1.786;2023-08-20T09:12:26;4.78;;;1.30;;
53245;SDS011;39569;51.090;-1.786;2023-08-20T09:14:53;2.03;;;1.55;;
53245;SDS011;39569;51.090;-1.786;2023-08-20T09:17:24;3.05;;;1.90;;
53245;SDS011;39569;51.090;-1.786;2023-08-20T09:19:51;1.85;;;1.40;;
53245;SDS011;39569;51.090;-1.786;2023-08-20T09:22:23;1.55;;;1.10;;
53245;SDS011;39569;51.090;-1.786;2023-08-20T09:24:53;2.22;;;1.60;;
53245;SDS011;39569;51.090;-1.786;2023-08-20T09:27:21;2.67;;;1.27;;
53245;SDS011;39569;51.090;-1.786;2023-08-20T09:29:50;6.22;;;2.15;;
53245;SDS011;39569;51.090;-1.786;2023-08-20T09:32:19;1.77;;;1.65;;
53245;SDS011;39569;51.090;-1.786;2023-08-20T09:34:47;4.57;;;1.27;;
53245;SDS011;39569;51.090;-1.786;2023-08-20T09:37:17;3.47;;;1.25;;
53245;SDS011;39569;51.090;-1.786;2023-08-20T09:39:45;1.73;;;1.08;;
53245;SDS011;39569;51.090;-1.786;2023-08-20T09:42:12;2.42;;;1.23;;
53245;SDS011;39569;51.090;-1.786;2023-08-20T09:44:40;1.30;;;1.20;;
53245;SDS011;39569;51.090;-1.786;2023-08-20T09:47:10;1.33;;;0.98;;
53245;SDS011;39569;51.090;-1.786;2023-08-20T09:49:38;1.38;;;1.27;;
53245;SDS011;39569;51.090;-1.786;2023-08-20T09:52:06;6.00;;;1.88;;
53245;SDS011;39569;51.090;-1.786;2023-08-20T09:57:29;4.10;;;1.33;;
53245;SDS011;39569;51.090;-1.786;2023-08-20T09:59:59;1.38;;;1.20;;
53245;SDS011;39569;51.090;-1.786;2023-08-20T10:02:29;4.43;;;2.20;;
53245;SDS011;39569;51.090;-1.786;2023-08-20T10:04:56;4.00;;;1.65;;
53245;SDS011;39569;51.090;-1.786;2023-08-20T10:07:26;1.33;;;1.23;;
53245;SDS011;39569;51.090;-1.786;2023-08-20T10:09:56;4.55;;;1.40;;
53245;SDS011;39569;51.090;-1.786;2023-08-20T10:12:25;5.90;;;2.22;;
53245;SDS011;39569;51.090;-1.786;2023-08-20T10:14:52;1.75;;;1.30;;
53245;SDS011;39569;51.090;-1.786;2023-08-20T10:17:21;2.60;;;1.38;;
53245;SDS011;39569;51.090;-1.786;2023-08-20T10:19:50;2.60;;;1.58;;
53245;SDS011;39569;51.090;-1.786;2023-08-20T10:22:18;1.98;;;1.67;;
53245;SDS011;39569;51.090;-1.786;2023-08-20T10:24:48;2.05;;;1.95;;
53245;SDS011;39569;51.090;-1.786;2023-08-20T10:27:25;4.03;;;1.58;;
53245;SDS011;39569;51.090;-1.786;2023-08-20T10:29:53;10.90;;;1.63;;
53245;SDS011;39569;51.090;-1.786;2023-08-20T10:32:20;3.75;;;1.60;;
53245;SDS011;39569;51.090;-1.786;2023-08-20T10:35:08;1.17;;;1.02;;
53245;SDS011;39569;51.090;-1.786;2023-08-20T10:37:35;3.75;;;1.77;;
53245;SDS011;39569;51.090;-1.786;2023-08-20T10:40:02;2.50;;;2.35;;
53245;SDS011;39569;51.090;-1.786;2023-08-20T10:42:30;5.30;;;1.88;;
53245;SDS011;39569;51.090;-1.786;2023-08-20T10:45:01;2.95;;;1.63;;
53245;SDS011;39569;51.090;-1.786;2023-08-20T10:47:42;9.32;;;2.20;;
53245;SDS011;39569;51.090;-1.786;2023-08-20T10:50:11;1.83;;;1.73;;
53245;SDS011;39569;51.090;-1.786;2023-08-20T10:52:46;1.83;;;1.27;;
53245;SDS011;39569;51.090;-1.786;2023-08-20T10:55:14;1.30;;;1.00;;
53245;SDS011;39569;51.090;-1.786;2023-08-20T10:57:41;2.60;;;1.48;;
53245;SDS011;39569;51.090;-1.786;2023-08-20T11:00:08;0.88;;;0.75;;
53245;SDS011;39569;51.090;-1.786;2023-08-20T11:02:41;4.32;;;2.10;;
53245;SDS011;39569;51.090;-1.786;2023-08-20T11:05:17;4.68;;;1.52;;
53245;SDS011;39569;51.090;-1.786;2023-08-20T11:07:45;1.95;;;1.58;;
53245;SDS011;39569;51.090;-1.786;2023-08-20T11:10:13;3.08;;;1.70;;
53245;SDS011;39569;51.090;-1.786;2023-08-20T11:12:41;3.42;;;2.22;;
53245;SDS011;39569;51.090;-1.786;2023-08-20T11:15:08;4.45;;;1.20;;
53245;SDS011;39569;51.090;-1.786;2023-08-20T11:17:40;1.35;;;1.23;;
53245;SDS011;39569;51.090;-1.786;2023-08-20T11:20:08;2.80;;;1.38;;
53245;SDS011;39569;51.090;-1.786;2023-08-20T11:22:38;1.48;;;1.20;;
53245;SDS011;39569;51.090;-1.786;2023-08-20T11:25:06;1.85;;;1.05;;
53245;SDS011;39569;51.090;-1.786;2023-08-20T11:27:36;1.58;;;1.20;;
53245;SDS011;39569;51.090;-1.786;2023-08-20T11:30:07;1.00;;;1.00;;
53245;SDS011;39569;51.090;-1.786;2023-08-20T11:32:36;1.67;;;1.38;;
53245;SDS011;39569;51.090;-1.786;2023-08-20T11:35:03;1.83;;;1.05;;
53245;SDS011;39569;51.090;-1.786;2023-08-20T11:37:30;3.03;;;2.08;;
53245;SDS011;39569;51.090;-1.786;2023-08-20T11:39:59;3.00;;;2.00;;
53245;SDS011;39569;51.090;-1.786;2023-08-20T11:42:25;2.63;;;1.30;;
53245;SDS011;39569;51.090;-1.786;2023-08-20T11:44:55;2.40;;;1.95;;
53245;SDS011;39569;51.090;-1.786;2023-08-20T11:47:22;2.53;;;1.73;;
53245;SDS011;39569;51.090;-1.786;2023-08-20T11:50:01;1.70;;;1.42;;
53245;SDS011;39569;51.090;-1.786;2023-08-20T11:52:30;12.63;;;1.30;;
53245;SDS011;39569;51.090;-1.786;2023-08-20T11:54:58;1.92;;;1.33;;
53245;SDS011;39569;51.090;-1.786;2023-08-20T11:57:26;3.55;;;1.38;;
53245;SDS011;39569;51.090;-1.786;2023-08-20T11:59:55;1.88;;;1.58;;
53245;SDS011;39569;51.090;-1.786;2023-08-20T12:02:25;7.90;;;1.70;;
53245;SDS011;39569;51.090;-1.786;2023-08-20T12:04:54;2.88;;;1.70;;
53245;SDS011;39569;51.090;-1.786;2023-08-20T12:07:24;1.75;;;1.65;;
53245;SDS011;39569;51.090;-1.786;2023-08-20T12:09:52;0.77;;;0.70;;
53245;SDS011;39569;51.090;-1.786;2023-08-20T12:12:21;1.10;;;1.00;;
53245;SDS011;39569;51.090;-1.786;2023-08-20T12:14:48;1.10;;;1.00;;
53245;SDS011;39569;51.090;-1.786;2023-08-20T12:17:16;2.05;;;1.90;;
53245;SDS011;39569;51.090;-1.786;2023-08-20T12:19:43;4.72;;;2.42;;
53245;SDS011;39569;51.090;-1.786;2023-08-20T12:22:10;1.30;;;1.23;;
53245;SDS011;39569;51.090;-1.786;2023-08-20T12:24:37;0.95;;;0.95;;
53245;SDS011;39569;51.090;-1.786;2023-08-20T12:27:04;1.00;;;0.70;;
53245;SDS011;39569;51.090;-1.786;2023-08-20T12:29:32;0.70;;;0.47;;
53245;SDS011;39569;51.090;-1.786;2023-08-20T12:31:59;6.32;;;1.85;;
53245;SDS011;39569;51.090;-1.786;2023-08-20T12:34:27;4.45;;;1.35;;
53245;SDS011;39569;51.090;-1.786;2023-08-20T12:36:54;2.67;;;1.92;;
53245;SDS011;39569;51.090;-1.786;2023-08-20T12:39:21;4.13;;;1.38;;
53245;SDS011;39569;51.090;-1.786;2023-08-20T12:41:49;1.45;;;1.27;;
53245;SDS011;39569;51.090;-1.786;2023-08-20T12:44:16;1.90;;;1.45;;
53245;SDS011;39569;51.090;-1.786;2023-08-20T12:46:44;1.98;;;1.00;;
53245;SDS011;39569;51.090;-1.786;2023-08-20T12:49:11;1.25;;;1.17;;
53245;SDS011;39569;51.090;-1.786;2023-08-20T12:51:37;1.35;;;0.85;;
53245;SDS011;39569;51.090;-1.786;2023-08-20T12:54:04;1.80;;;1.02;;
53245;SDS011;39569;51.090;-1.786;2023-08-20T12:56:31;1.55;;;0.80;;
53245;SDS011;39569;51.090;-1.786;2023-08-20T12:58:58;1.58;;;1.48;;
53245;SDS011;39569;51.090;-1.786;2023-08-20T13:01:25;1.23;;;1.15;;
53245;SDS011;39569;51.090;-1.786;2023-08-20T13:03:53;2.25;;;1.63;;
53245;SDS011;39569;51.090;-1.786;2023-08-20T13:06:21;1.52;;;0.77;;
53245;SDS011;39569;51.090;-1.786;2023-08-20T13:08:48;3.20;;;1.48;;
53245;SDS011;39569;51.090;-1.786;2023-08-20T13:11:16;1.23;;;0.77;;
53245;SDS011;39569;51.090;-1.786;2023-08-20T13:13:43;2.05;;;1.15;;
53245;SDS011;39569;51.090;-1.786;2023-08-20T13:16:11;2.45;;;1.08;;
53245;SDS011;39569;51.090;-1.786;2023-08-20T13:18:38;3.65;;;1.10;;
53245;SDS011;39569;51.090;-1.786;2023-08-20T13:21:07;3.42;;;1.85;;
53245;SDS011;39569;51.090;-1.786;2023-08-20T13:23:34;1.15;;;1.05;;
53245;SDS011;39569;51.090;-1.786;2023-08-20T13:26:01;1.63;;;1.17;;
53245;SDS011;39569;51.090;-1.786;2023-08-20T13:28:28;7.78;;;1.00;;
53245;SDS011;39569;51.090;-1.786;2023-08-20T13:30:54;1.02;;;0.90;;
53245;SDS011;39569;51.090;-1.786;2023-08-20T13:33:21;1.08;;;0.75;;
53245;SDS011;39569;51.090;-1.786;2023-08-20T13:35:48;2.25;;;0.80;;
53245;SDS011;39569;51.090;-1.786;2023-08-20T13:38:16;1.33;;;1.17;;
53245;SDS011;39569;51.090;-1.786;2023-08-20T13:40:44;2.72;;;1.58;;
53245;SDS011;39569;51.090;-1.786;2023-08-20T13:43:11;1.13;;;0.95;;
53245;SDS011;39569;51.090;-1.786;2023-08-20T13:45:38;1.55;;;0.98;;
53245;SDS011;39569;51.090;-1.786;2023-08-20T13:48:05;2.45;;;1.30;;
53245;SDS011;39569;51.090;-1.786;2023-08-20T13:50:32;3.30;;;2.67;;
53245;SDS011;39569;51.090;-1.786;2023-08-20T13:52:59;1.30;;;1.20;;
53245;SDS011;39569;51.090;-1.786;2023-08-20T13:55:29;2.67;;;1.20;;
53245;SDS011;39569;51.090;-1.786;2023-08-20T13:57:56;1.20;;;1.08;;
53245;SDS011;39569;51.090;-1.786;2023-08-20T14:00:23;1.88;;;0.98;;
53245;SDS011;39569;51.090;-1.786;2023-08-20T14:02:50;4.03;;;1.13;;
53245;SDS011;39569;51.090;-1.786;2023-08-20T14:05:17;2.13;;;1.15;;
53245;SDS011;39569;51.090;-1.786;2023-08-20T14:07:44;1.13;;;1.08;;
53245;SDS011;39569;51.090;-1.786;2023-08-20T14:10:11;1.83;;;1.10;;
53245;SDS011;39569;51.090;-1.786;2023-08-20T14:12:39;2.83;;;1.55;;
53245;SDS011;39569;51.090;-1.786;2023-08-20T14:15:07;0.98;;;0.73;;
53245;SDS011;39569;51.090;-1.786;2023-08-20T14:17:34;2.92;;;1.20;;
53245;SDS011;39569;51.090;-1.786;2023-08-20T14:20:01;2.05;;;1.85;;
53245;SDS011;39569;51.090;-1.786;2023-08-20T14:22:29;3.47;;;2.15;;
53245;SDS011;39569;51.090;-1.786;2023-08-20T14:24:55;1.83;;;1.05;;
53245;SDS011;39569;51.090;-1.786;2023-08-20T14:27:22;2.25;;;1.33;;
53245;SDS011;39569;51.090;-1.786;2023-08-20T14:29:51;1.10;;;1.00;;
53245;SDS011;39569;51.090;-1.786;2023-08-20T14:32:18;1.58;;;1.33;;
53245;SDS011;39569;51.090;-1.786;2023-08-20T14:34:44;1.25;;;0.93;;
53245;SDS011;39569;51.090;-1.786;2023-08-20T14:37:12;2.13;;;1.27;;
53245;SDS011;39569;51.090;-1.786;2023-08-20T14:39:39;3.17;;;1.40;;
53245;SDS011;39569;51.090;-1.786;2023-08-20T14:42:06;8.35;;;1.45;;